Latest Weather Observations for Gabo Island

IDN60801

Issued at 4:33 pm EST Saturday 30 May 2015 (issued every 30 minutes, with the page automatically refreshed every 10 minutes)

About weather observations | Map of weather stations | Latest weather observations for NSW | Other Formats
Station Details ID: 084016 Name: GABO ISLAND LIGHTHOUSE Lat: -37.57 Lon: 149.92 Height: 15.2 m
Data from the previous 72 hours. | See also: Recent months at Gabo Island
Date/Time
EST
Temp
°C
App
Temp
°C
Dew
Point
Rel
Hum
%
Delta-T
°C
Wind Press
QNH
hPa
Press
MSL
hPa
Rain
since 9 am
mm
Dir
 
Spd
km/h
Gust
km/h
Spd
kts
Gust
kts
30/04:30pm 14.0 11.2 5.2 55 4.1 NE 9 11 5 6 1015.2 - 0.0
30/04:00pm 15.2 12.3 6.3 55 4.3 NE 11 15 6 8 1015.2 - 0.0
30/03:30pm 15.6 11.5 4.5 47 5.2 NE 15 19 8 10 1015.0 - 0.0
30/03:00pm 15.7 11.3 4.9 48 5.1 NE 17 20 9 11 1015.0 1015.1 0.0
30/02:30pm 16.0 11.6 5.0 48 5.2 NE 17 19 9 10 1015.1 - 0.0
30/02:00pm 16.1 13.6 4.9 47 5.3 ENE 7 9 4 5 1015.3 - 0.0
30/01:30pm 16.3 13.9 5.2 47 5.3 NNE 7 11 4 6 1015.7 - 0.0
30/01:00pm 15.8 12.9 2.4 40 6.0 WSW 7 11 4 6 1016.1 - 0.0
30/12:30pm 16.3 13.9 4.3 45 5.6 WSW 6 9 3 5 1016.8 - 0.0
30/12:00pm 15.6 11.9 4.7 48 5.1 WNW 13 17 7 9 1017.7 1017.8 0.0
30/11:30am 15.0 10.4 3.9 47 5.1 WNW 17 22 9 12 1018.5 - 0.0
30/11:00am 14.7 10.2 4.0 48 4.9 NW 17 24 9 13 1019.3 - 0.0
30/10:30am 14.0 10.0 4.7 53 4.3 NW 15 22 8 12 1019.8 - 0.0
30/10:00am 13.3 8.4 4.3 54 4.1 NW 19 26 10 14 1019.9 - 0.0
30/09:30am 13.0 8.2 4.4 56 3.9 NW 19 24 10 13 1020.1 - 0.0
30/09:00am 12.3 7.9 4.6 59 3.5 NW 17 24 9 13 1020.0 1020.0 0.0
30/08:30am 12.1 8.4 4.6 60 3.4 NW 13 19 7 10 1020.1 - 0.0
30/08:00am 11.1 7.6 5.4 68 2.6 NW 13 17 7 9 1020.2 - 0.0
30/07:30am 10.7 6.8 5.2 69 2.5 NW 15 20 8 11 1020.1 - 0.0
30/07:00am 10.5 6.5 4.7 67 2.6 NW 15 19 8 10 1020.1 - 0.0
30/06:30am 10.3 6.0 5.2 70 2.3 NW 17 22 9 12 1020.1 - 0.0
30/06:00am 10.6 6.4 5.8 72 2.2 NW 17 20 9 11 1020.2 1020.2 0.0
30/05:30am 10.4 6.3 6.1 75 2.0 NW 17 20 9 11 1020.3 - 0.0
30/05:00am 10.1 6.4 6.2 77 1.8 NW 15 19 8 10 1020.2 - 0.0
30/04:30am 10.5 6.9 6.7 77 1.8 NW 15 20 8 11 1020.2 - 0.0
30/04:00am 10.2 6.2 6.6 78 1.7 WNW 17 20 9 11 1020.3 - 0.0
30/03:30am 10.4 7.4 6.1 75 2.0 WNW 11 15 6 8 1020.6 - 0.0
30/03:00am 10.1 6.7 6.0 76 1.9 NW 13 19 7 10 1021.0 1021.0 0.0
30/02:30am 10.1 6.4 6.2 77 1.8 NNW 15 17 8 9 1021.4 - 0.0
30/02:00am 10.4 7.0 5.8 73 2.1 NW 13 15 7 8 1021.7 - 0.0
30/01:30am 10.6 6.8 5.8 72 2.2 NNW 15 17 8 9 1021.7 - 0.0
30/01:00am 10.8 7.1 6.1 73 2.2 NNW 15 19 8 10 1021.8 - 0.0
30/12:30am 10.8 7.5 6.3 74 2.1 NNW 13 15 7 8 1021.8 - 0.0
30/12:00am 11.1 7.8 6.2 72 2.3 NNW 13 15 7 8 1021.9 1022.0 0.0
 
Date/Time
EST
Temp
°C
App
Temp
°C
Dew
Point
Rel
Hum
%
Delta-T
°C
Wind Press
QNH
hPa
Press
MSL
hPa
Rain
since 9 am
mm
Dir
 
Spd
km/h
Gust
km/h
Spd
kts
Gust
kts
29/11:30pm 11.2 7.8 6.0 70 2.4 NNW 13 15 7 8 1022.2 - 0.0
29/11:00pm 12.0 8.7 6.5 69 2.6 NW 13 17 7 9 1022.2 - 0.0
29/10:30pm 12.4 9.1 6.5 67 2.8 NW 13 17 7 9 1022.4 - 0.0
29/10:00pm 12.4 9.3 7.4 71 2.4 WNW 13 19 7 10 1022.5 - 0.0
29/09:30pm 12.5 9.5 7.5 71 2.4 WNW 13 19 7 10 1022.6 - 0.0
29/09:00pm 11.6 7.4 7.4 75 2.0 W 19 24 10 13 1022.5 1022.5 0.0
29/08:30pm 12.4 8.1 7.2 70 2.5 W 19 22 10 12 1022.5 - 0.0
29/08:00pm 12.5 7.6 7.1 69 2.6 W 22 26 12 14 1022.3 - 0.0
29/07:30pm 12.4 8.0 7.2 70 2.5 W 20 24 11 13 1022.1 - 0.0
29/07:00pm 11.9 8.3 6.6 70 2.5 WNW 15 20 8 11 1022.1 - 0.0
29/06:30pm 12.3 8.7 6.9 69 2.6 WNW 15 20 8 11 1021.6 - 0.0
29/06:00pm 12.8 8.0 7.2 69 2.7 W 22 28 12 15 1021.1 1021.1 0.0
29/05:30pm 13.4 7.4 7.2 66 3.0 WSW 28 33 15 18 1020.9 - 0.0
29/05:00pm 13.9 6.8 6.4 60 3.6 SW 33 41 18 22 1020.7 - 0.0
29/04:30pm 14.1 6.8 7.4 64 3.3 SW 35 41 19 22 1020.4 - 0.0
29/04:00pm 14.4 7.1 7.0 61 3.6 SW 35 43 19 23 1020.3 - 0.0
29/03:30pm 14.5 6.7 6.6 59 3.8 SW 37 43 20 23 1020.4 - 0.0
29/03:00pm 14.7 7.7 6.9 59 3.8 SW 33 41 18 22 1020.5 1020.5 0.0
29/02:30pm 14.7 6.5 6.4 57 4.0 SW 39 46 21 25 1020.1 - 0.0
29/02:00pm 14.6 6.5 7.0 60 3.7 SW 39 46 21 25 1019.9 - 0.0
29/01:30pm 14.6 6.9 7.3 61 3.6 SW 37 43 20 23 1019.8 - 0.0
29/01:00pm 14.9 7.9 6.9 58 3.9 SW 33 44 18 24 1019.8 - 0.0
29/12:30pm 14.7 7.4 7.1 60 3.7 SW 35 43 19 23 1019.9 - 0.0
29/12:00pm 15.1 8.8 7.4 60 3.8 WSW 30 35 16 19 1020.2 1020.2 0.0
29/11:30am 14.8 8.9 7.5 61 3.6 WSW 28 35 15 19 1020.4 - 0.0
29/11:00am 14.3 7.7 7.6 64 3.3 WSW 32 39 17 21 1020.2 - 0.0
29/10:30am 14.2 8.1 8.2 67 3.0 WSW 30 39 16 21 1020.3 - 0.0
29/10:00am 13.8 7.0 7.9 67 2.9 WSW 33 41 18 22 1020.0 - 0.0
29/09:30am 13.6 5.9 7.0 64 3.2 WSW 37 48 20 26 1019.8 - 0.0
29/09:00am 14.0 6.1 7.9 66 3.0 WSW 39 48 21 26 1019.7 1019.6 0.0
29/08:30am 13.8 5.1 7.5 66 3.1 WSW 43 56 23 30 1019.5 - 0.0
29/08:00am 13.7 4.9 8.0 68 2.8 WSW 44 56 24 30 1019.1 - 0.0
29/07:30am 13.5 7.3 9.4 76 2.1 W 32 41 17 22 1019.0 - 0.0
29/07:00am 13.5 7.0 8.9 74 2.3 WSW 33 44 18 24 1018.6 - 0.0
29/06:30am 13.4 8.3 10.5 82 1.5 W 28 35 15 19 1018.3 - 0.0
29/06:00am 13.9 10.4 10.9 82 1.6 W 20 20 11 11 1017.8 1017.7 0.0
29/05:30am 14.1 10.7 11.1 82 1.6 W 20 26 11 14 1017.2 - 0.0
29/05:00am 14.6 11.0 12.0 84 1.4 W 22 30 12 16 1017.0 - 0.0
29/04:30am 15.0 9.5 12.4 84 1.4 SW 33 41 18 22 1016.7 - 0.0
29/04:00am 15.3 9.9 12.8 85 1.4 SW 33 43 18 23 1016.2 - 0.0
29/03:30am 14.9 10.0 10.1 73 2.5 WSW 26 41 14 22 1015.6 - 0.0
29/03:00am 16.2 13.4 8.5 60 3.9 WNW 13 19 7 10 1014.9 1014.9 0.0
29/02:30am 17.9 14.0 7.1 49 5.4 NNW 17 22 9 12 1014.9 - 0.0
29/02:00am 17.1 13.6 7.1 51 5.0 NNW 15 20 8 11 1014.8 - 0.0
29/01:30am 16.3 12.4 7.2 55 4.5 NNW 17 20 9 11 1014.7 - 0.0
29/01:00am 16.0 14.0 8.5 61 3.8 NW 9 11 5 6 1015.2 - 0.0
29/12:30am 16.1 13.3 8.4 60 3.9 NNW 13 20 7 11 1015.1 - 0.0
29/12:00am 16.0 13.5 9.7 66 3.3 WNW 13 19 7 10 1015.3 1015.4 0.0
 
Date/Time
EST
Temp
°C
App
Temp
°C
Dew
Point
Rel
Hum
%
Delta-T
°C
Wind Press
QNH
hPa
Press
MSL
hPa
Rain
since 9 am
mm
Dir
 
Spd
km/h
Gust
km/h
Spd
kts
Gust
kts
28/11:30pm 15.3 13.5 9.3 67 3.1 WNW 9 13 5 7 1015.4 - 0.0
28/11:00pm 15.5 14.5 10.2 70 2.8 W 6 11 3 6 1015.7 - 0.0
28/10:30pm 16.3 14.7 8.9 61 3.8 NW 7 11 4 6 1015.7 - 0.0
28/10:00pm 15.2 13.4 10.7 74 2.4 NNW 11 13 6 7 1015.7 - 0.0
28/09:30pm 14.8 13.5 11.2 79 1.9 W 9 11 5 6 1015.9 - 0.0
28/09:00pm 14.7 13.9 10.9 78 2.0 NNW 6 9 3 5 1016.0 1015.8 0.0
28/08:30pm 15.5 13.5 11.4 76 2.2 N 13 17 7 9 1016.1 - 0.0
28/08:00pm 15.4 13.0 11.3 76 2.2 N 15 20 8 11 1016.0 - 0.0
28/07:30pm 14.5 12.2 10.3 76 2.2 N 13 15 7 8 1016.4 - 0.0
28/07:00pm 14.4 13.3 12.0 85 1.3 NNE 9 11 5 6 1016.4 - 0.0
28/06:30pm 14.4 12.4 11.6 83 1.5 NNE 13 15 7 8 1016.4 - 0.0
28/06:00pm 14.7 12.9 12.1 84 1.4 N 13 19 7 10 1016.2 1016.2 0.0
28/05:30pm 15.1 12.6 12.2 83 1.6 N 17 17 9 9 1016.3 - 0.0
28/05:00pm 15.9 13.4 11.2 73 2.5 N 15 20 8 11 1016.2 - 0.0
28/04:30pm 16.3 13.7 11.9 75 2.4 N 17 19 9 10 1016.2 - 0.0
28/04:00pm 16.8 14.9 13.0 78 2.1 NNE 15 17 8 9 1016.5 - 0.0
28/03:30pm 17.4 15.8 12.9 75 2.5 NNE 13 17 7 9 1016.6 - 0.0
28/03:00pm 18.2 16.9 13.8 75 2.5 NNE 13 17 7 9 1016.6 1016.6 0.0
28/02:30pm 19.1 17.5 12.7 66 3.6 NNE 13 17 7 9 1016.6 - 0.0
28/02:00pm 19.8 18.0 10.8 56 4.9 N 11 17 6 9 1017.1 - 0.0
28/01:30pm 19.4 17.6 9.6 53 5.2 NNW 9 13 5 7 1017.3 - 0.0
28/01:00pm 20.0 17.5 8.0 46 6.2 NW 11 15 6 8 1017.7 - 0.0
28/12:30pm 20.2 19.0 10.4 53 5.3 NNE 7 9 4 5 1018.0 - 0.0
28/12:00pm 18.8 17.8 12.3 66 3.6 NNE 9 17 5 9 1018.3 1018.5 0.0
28/11:30am 19.6 17.1 9.6 52 5.3 NNE 13 17 7 9 1019.0 - 0.0
28/11:00am 17.5 16.3 10.3 62 3.8 W 7 13 4 7 1019.5 - 0.0
28/10:30am 17.2 15.0 9.5 60 4.0 N 11 13 6 7 1019.9 - 0.0
28/10:00am 17.1 14.7 9.9 62 3.8 W 13 15 7 8 1020.2 - 0.0
28/09:30am 18.7 16.2 8.4 51 5.3 N 11 15 6 8 1020.1 - 0.0
28/09:00am 16.5 15.0 10.5 67 3.2 NNE 9 13 5 7 1020.1 1020.1 0.0
28/08:30am 15.7 14.4 9.9 68 3.0 NNE 7 9 4 5 1020.1 - 0.0
28/08:00am 13.6 12.2 9.5 76 2.1 NNE 7 11 4 6 1020.2 - 0.0
28/07:30am 14.0 11.6 8.6 70 2.7 NNW 11 13 6 7 1020.1 - 0.0
28/07:00am 14.7 11.0 7.8 63 3.4 NW 17 20 9 11 1019.8 - 0.0
28/06:30am 14.2 11.5 7.5 64 3.3 NW 11 15 6 8 1019.7 - 0.0
28/06:00am 13.0 11.5 8.6 74 2.2 NNE 6 6 3 3 1019.4 1019.4 0.0
28/05:30am 14.0 12.1 7.5 65 3.2 NW 7 11 4 6 1019.3 - 0.0
28/05:00am 12.8 11.1 8.4 74 2.2 NE 7 11 4 6 1019.3 - 0.0
28/04:30am 13.6 11.1 8.4 71 2.6 NW 11 15 6 8 1019.4 - 0.0
28/04:00am 13.9 9.8 7.8 66 3.0 NW 19 20 10 11 1019.3 - 0.0
28/03:30am 12.6 9.9 9.0 79 1.8 W 13 15 7 8 1019.3 - 0.0
28/03:00am 14.6 11.1 7.0 60 3.7 NW 15 17 8 9 1019.5 1019.5 0.0
28/02:30am 13.6 10.6 7.9 68 2.8 NW 13 17 7 9 1019.7 - 0.0
28/02:00am 14.6 11.1 7.3 61 3.6 NW 15 17 8 9 1019.8 - 0.0
28/01:30am 14.6 12.0 7.7 63 3.4 NW 11 15 6 8 1019.9 - 0.0
28/01:00am 14.7 11.2 7.4 61 3.6 NW 15 19 8 10 1019.9 - 0.0
28/12:30am 14.7 11.8 8.1 64 3.3 NW 13 17 7 9 1020.0 - 0.0
28/12:00am 14.1 11.2 8.1 67 3.0 NNW 13 15 7 8 1020.2 1020.2 0.0
 
Date/Time
EST
Temp
°C
App
Temp
°C
Dew
Point
Rel
Hum
%
Delta-T
°C
Wind Press
QNH
hPa
Press
MSL
hPa
Rain
since 9 am
mm
Dir
 
Spd
km/h
Gust
km/h
Spd
kts
Gust
kts
27/11:30pm 14.3 11.9 8.5 68 2.9 NW 11 15 6 8 1020.3 - 0.0
27/11:00pm 13.1 11.3 9.6 79 1.8 WNW 9 15 5 8 1020.2 - 0.0
27/10:30pm 12.0 10.2 9.6 85 1.2 W 9 11 5 6 1020.2 - 0.0
27/10:00pm 13.0 11.3 9.7 80 1.7 NW 9 13 5 7 1020.3 - 0.0
27/09:30pm 13.1 10.0 7.1 67 2.9 N 13 17 7 9 1020.4 - 0.0
27/09:00pm 12.7 10.9 7.1 69 2.7 N 6 13 3 7 1020.3 1020.3 0.0
27/08:30pm 12.3 10.0 7.6 73 2.3 N 9 13 5 7 1020.4 - 0.0
27/08:00pm 11.9 8.6 8.0 77 1.9 N 15 15 8 8 1020.3 - 0.0
27/07:30pm 12.8 9.2 8.4 74 2.2 N 17 20 9 11 1020.2 - 0.0
27/07:00pm 13.2 10.3 9.5 78 1.9 N 15 17 8 9 1020.1 - 0.0
27/06:30pm 13.6 10.6 9.3 75 2.2 N 15 19 8 10 1020.0 - 0.0
27/06:00pm 14.0 11.0 9.3 73 2.4 NNE 15 17 8 9 1019.9 1020.0 0.0
27/05:30pm 14.7 11.9 10.1 74 2.4 NNE 15 17 8 9 1019.9 - 0.0
27/05:00pm 14.9 11.8 8.8 67 3.1 NNE 15 19 8 10 1019.8 - 0.0

Other Formats:

Comma delimited format used in spreadsheet applications
http://www.bom.gov.au/fwo/IDN60801/IDN60801.94933.axf

JavaScript Object Notation format (JSON) in row-major order
http://www.bom.gov.au/fwo/IDN60801/IDN60801.94933.json